sensor_id;sensor_type;location;lat;lon;timestamp;pressure;altitude;pressure_sealevel;temperature;humidity
58243;BME280;50118;53.232;8.252;2023-03-01T00:01:49;103109.41;;;-4.33;100.00
58243;BME280;50118;53.232;8.252;2023-03-01T00:04:14;103110.31;;;-4.32;100.00
58243;BME280;50118;53.232;8.252;2023-03-01T00:06:42;103118.91;;;-4.38;100.00
58243;BME280;50118;53.232;8.252;2023-03-01T00:09:08;103110.22;;;-4.43;100.00
58243;BME280;50118;53.232;8.252;2023-03-01T00:11:33;103118.88;;;-4.45;100.00
58243;BME280;50118;53.232;8.252;2023-03-01T00:14:00;103112.78;;;-4.51;100.00
58243;BME280;50118;53.232;8.252;2023-03-01T00:16:28;103109.31;;;-4.48;100.00
58243;BME280;50118;53.232;8.252;2023-03-01T00:18:55;103098.91;;;-4.54;100.00
58243;BME280;50118;53.232;8.252;2023-03-01T00:21:21;103093.69;;;-4.53;100.00
58243;BME280;50118;53.232;8.252;2023-03-01T00:23:47;103085.88;;;-4.54;100.00
58243;BME280;50118;53.232;8.252;2023-03-01T00:26:17;103089.34;;;-4.54;100.00
58243;BME280;50118;53.232;8.252;2023-03-01T00:28:43;103094.56;;;-4.51;100.00
58243;BME280;50118;53.232;8.252;2023-03-01T00:31:14;103095.41;;;-4.53;100.00
58243;BME280;50118;53.232;8.252;2023-03-01T00:33:40;103090.22;;;-4.52;100.00
58243;BME280;50118;53.232;8.252;2023-03-01T00:36:08;103081.56;;;-4.51;100.00
58243;BME280;50118;53.232;8.252;2023-03-01T00:38:38;103086.75;;;-4.52;100.00
58243;BME280;50118;53.232;8.252;2023-03-01T00:41:08;103088.50;;;-4.50;100.00
58243;BME280;50118;53.232;8.252;2023-03-01T00:43:33;103090.28;;;-4.42;100.00
58243;BME280;50118;53.232;8.252;2023-03-01T00:46:05;103079.88;;;-4.44;100.00
58243;BME280;50118;53.232;8.252;2023-03-01T00:48:32;103082.44;;;-4.47;100.00
58243;BME280;50118;53.232;8.252;2023-03-01T00:53:31;103085.91;;;-4.46;100.00
58243;BME280;50118;53.232;8.252;2023-03-01T00:55:58;103081.59;;;-4.47;100.00
58243;BME280;50118;53.232;8.252;2023-03-01T00:58:24;103082.44;;;-4.48;100.00
58243;BME280;50118;53.232;8.252;2023-03-01T01:00:49;103079.84;;;-4.48;100.00
58243;BME280;50118;53.232;8.252;2023-03-01T01:03:15;103073.75;;;-4.51;100.00
58243;BME280;50118;53.232;8.252;2023-03-01T01:05:40;103076.34;;;-4.54;100.00
58243;BME280;50118;53.232;8.252;2023-03-01T01:08:06;103076.31;;;-4.57;100.00
58243;BME280;50118;53.232;8.252;2023-03-01T01:10:34;103070.19;;;-4.63;100.00
58243;BME280;50118;53.232;8.252;2023-03-01T01:12:59;103071.03;;;-4.69;100.00
58243;BME280;50118;53.232;8.252;2023-03-01T01:15:24;103067.53;;;-4.74;100.00
58243;BME280;50118;53.232;8.252;2023-03-01T01:17:50;103066.66;;;-4.79;100.00
58243;BME280;50118;53.232;8.252;2023-03-01T01:20:15;103068.38;;;-4.81;100.00
58243;BME280;50118;53.232;8.252;2023-03-01T01:22:41;103057.94;;;-4.84;100.00
58243;BME280;50118;53.232;8.252;2023-03-01T01:25:06;103058.78;;;-4.92;100.00
58243;BME280;50118;53.232;8.252;2023-03-01T01:27:32;103055.28;;;-4.95;100.00
58243;BME280;50118;53.232;8.252;2023-03-01T01:29:57;103053.50;;;-4.98;100.00
58243;BME280;50118;53.232;8.252;2023-03-01T01:32:23;103052.66;;;-4.97;100.00
58243;BME280;50118;53.232;8.252;2023-03-01T01:34:48;103055.22;;;-5.03;100.00
58243;BME280;50118;53.232;8.252;2023-03-01T01:37:14;103045.66;;;-5.04;100.00
58243;BME280;50118;53.232;8.252;2023-03-01T01:39:39;103048.28;;;-5.05;100.00
58243;BME280;50118;53.232;8.252;2023-03-01T01:42:05;103048.25;;;-5.07;100.00
58243;BME280;50118;53.232;8.252;2023-03-01T01:44:30;103036.97;;;-5.06;100.00
58243;BME280;50118;53.232;8.252;2023-03-01T01:47:05;103039.56;;;-5.08;100.00
58243;BME280;50118;53.232;8.252;2023-03-01T01:49:44;103033.50;;;-5.08;100.00
58243;BME280;50118;53.232;8.252;2023-03-01T01:52:20;103038.72;;;-5.08;100.00
58243;BME280;50118;53.232;8.252;2023-03-01T01:55:03;103036.09;;;-5.08;100.00
58243;BME280;50118;53.232;8.252;2023-03-01T01:57:39;103030.06;;;-5.04;100.00
58243;BME280;50118;53.232;8.252;2023-03-01T02:00:13;103024.88;;;-5.01;100.00
58243;BME280;50118;53.232;8.252;2023-03-01T02:02:40;103030.09;;;-5.01;100.00
58243;BME280;50118;53.232;8.252;2023-03-01T02:06:00;103021.47;;;-4.97;100.00
58243;BME280;50118;53.232;8.252;2023-03-01T02:08:20;103019.66;;;-5.04;100.00
58243;BME280;50118;53.232;8.252;2023-03-01T02:10:46;103021.38;;;-5.06;100.00
58243;BME280;50118;53.232;8.252;2023-03-01T02:13:13;103010.13;;;-5.08;100.00
58243;BME280;50118;53.232;8.252;2023-03-01T02:15:42;103003.19;;;-5.11;100.00
58243;BME280;50118;53.232;8.252;2023-03-01T02:18:10;103004.88;;;-5.14;100.00
58243;BME280;50118;53.232;8.252;2023-03-01T02:20:48;103002.28;;;-5.17;100.00
58243;BME280;50118;53.232;8.252;2023-03-01T02:23:18;103002.22;;;-5.23;100.00
58243;BME280;50118;53.232;8.252;2023-03-01T02:25:58;103001.38;;;-5.22;100.00
58243;BME280;50118;53.232;8.252;2023-03-01T02:30:53;103001.28;;;-5.32;100.00
58243;BME280;50118;53.232;8.252;2023-03-01T02:33:38;103008.16;;;-5.38;100.00
58243;BME280;50118;53.232;8.252;2023-03-01T02:36:17;103014.13;;;-5.47;100.00
58243;BME280;50118;53.232;8.252;2023-03-01T02:38:44;103003.72;;;-5.50;100.00
58243;BME280;50118;53.232;8.252;2023-03-01T02:41:13;103005.41;;;-5.55;100.00
58243;BME280;50118;53.232;8.252;2023-03-01T02:43:40;103011.44;;;-5.61;100.00
58243;BME280;50118;53.232;8.252;2023-03-01T02:46:08;103010.53;;;-5.65;100.00
58243;BME280;50118;53.232;8.252;2023-03-01T02:51:18;103014.84;;;-5.67;100.00
58243;BME280;50118;53.232;8.252;2023-03-01T02:56:20;103008.75;;;-5.69;100.00
58243;BME280;50118;53.232;8.252;2023-03-01T02:58:46;103007.03;;;-5.70;100.00
58243;BME280;50118;53.232;8.252;2023-03-01T03:01:16;103002.72;;;-5.66;100.00
58243;BME280;50118;53.232;8.252;2023-03-01T03:03:41;102996.69;;;-5.65;100.00
58243;BME280;50118;53.232;8.252;2023-03-01T03:06:07;103000.13;;;-5.65;100.00
58243;BME280;50118;53.232;8.252;2023-03-01T03:08:33;103002.72;;;-5.66;100.00
58243;BME280;50118;53.232;8.252;2023-03-01T03:10:59;103004.41;;;-5.70;100.00
58243;BME280;50118;53.232;8.252;2023-03-01T03:13:24;103000.03;;;-5.74;100.00
58243;BME280;50118;53.232;8.252;2023-03-01T03:15:56;102998.31;;;-5.75;100.00
58243;BME280;50118;53.232;8.252;2023-03-01T03:18:24;103004.38;;;-5.74;100.00
58243;BME280;50118;53.232;8.252;2023-03-01T03:20:52;102993.09;;;-5.76;100.00
58243;BME280;50118;53.232;8.252;2023-03-01T03:23:19;102993.09;;;-5.76;100.00
58243;BME280;50118;53.232;8.252;2023-03-01T03:25:50;102991.38;;;-5.76;100.00
58243;BME280;50118;53.232;8.252;2023-03-01T03:28:16;102982.72;;;-5.76;100.00
58243;BME280;50118;53.232;8.252;2023-03-01T03:30:42;102976.66;;;-5.77;100.00
58243;BME280;50118;53.232;8.252;2023-03-01T03:33:09;102980.97;;;-5.76;100.00
58243;BME280;50118;53.232;8.252;2023-03-01T03:35:45;102976.69;;;-5.75;100.00
58243;BME280;50118;53.232;8.252;2023-03-01T03:38:12;102974.94;;;-5.75;100.00
58243;BME280;50118;53.232;8.252;2023-03-01T03:40:43;102966.31;;;-5.71;100.00
58243;BME280;50118;53.232;8.252;2023-03-01T03:43:20;102970.69;;;-5.68;100.00
58243;BME280;50118;53.232;8.252;2023-03-01T03:45:48;102965.47;;;-5.70;100.00
58243;BME280;50118;53.232;8.252;2023-03-01T03:48:14;102966.31;;;-5.71;100.00
58243;BME280;50118;53.232;8.252;2023-03-01T03:50:40;102967.19;;;-5.69;100.00
58243;BME280;50118;53.232;8.252;2023-03-01T03:53:12;102968.13;;;-5.65;100.00
58243;BME280;50118;53.232;8.252;2023-03-01T03:55:37;102967.25;;;-5.63;100.00
58243;BME280;50118;53.232;8.252;2023-03-01T03:58:05;102962.06;;;-5.63;100.00
58243;BME280;50118;53.232;8.252;2023-03-01T04:00:40;102962.06;;;-5.63;100.00
58243;BME280;50118;53.232;8.252;2023-03-01T04:03:06;102967.25;;;-5.64;100.00
58243;BME280;50118;53.232;8.252;2023-03-01T04:05:32;102960.34;;;-5.60;100.00
58243;BME280;50118;53.232;8.252;2023-03-01T04:07:58;102958.63;;;-5.61;100.00
58243;BME280;50118;53.232;8.252;2023-03-01T04:10:32;102961.22;;;-5.61;100.00
58243;BME280;50118;53.232;8.252;2023-03-01T04:12:58;102959.47;;;-5.64;100.00
58243;BME280;50118;53.232;8.252;2023-03-01T04:15:25;102954.22;;;-5.67;100.00
58243;BME280;50118;53.232;8.252;2023-03-01T04:17:52;102962.00;;;-5.69;100.00
58243;BME280;50118;53.232;8.252;2023-03-01T04:20:26;102961.13;;;-5.69;100.00
58243;BME280;50118;53.232;8.252;2023-03-01T04:23:00;102958.53;;;-5.71;100.00
58243;BME280;50118;53.232;8.252;2023-03-01T04:25:57;102959.38;;;-5.73;100.00
58243;BME280;50118;53.232;8.252;2023-03-01T04:28:34;102956.78;;;-5.75;100.00
58243;BME280;50118;53.232;8.252;2023-03-01T04:31:09;102953.31;;;-5.77;100.00
58243;BME280;50118;53.232;8.252;2023-03-01T04:33:53;102949.88;;;-5.73;100.00
58243;BME280;50118;53.232;8.252;2023-03-01T04:36:24;102942.91;;;-5.74;100.00
58243;BME280;50118;53.232;8.252;2023-03-01T04:38:50;102949.91;;;-5.70;100.00
58243;BME280;50118;53.232;8.252;2023-03-01T04:41:18;102933.47;;;-5.70;100.00
58243;BME280;50118;53.232;8.252;2023-03-01T04:43:44;102940.31;;;-5.74;100.00
58243;BME280;50118;53.232;8.252;2023-03-01T04:46:12;102945.53;;;-5.75;100.00
58243;BME280;50118;53.232;8.252;2023-03-01T04:48:40;102936.84;;;-5.77;100.00
58243;BME280;50118;53.232;8.252;2023-03-01T04:51:07;102940.28;;;-5.80;100.00
58243;BME280;50118;53.232;8.252;2023-03-01T04:53:34;102937.66;;;-5.83;100.00
58243;BME280;50118;53.232;8.252;2023-03-01T04:56:01;102942.81;;;-5.86;100.00
58243;BME280;50118;53.232;8.252;2023-03-01T04:58:27;102928.97;;;-5.87;100.00
58243;BME280;50118;53.232;8.252;2023-03-01T05:00:54;102935.00;;;-5.88;100.00
58243;BME280;50118;53.232;8.252;2023-03-01T05:03:20;102937.59;;;-5.89;100.00
58243;BME280;50118;53.232;8.252;2023-03-01T05:05:48;102934.13;;;-5.90;100.00
58243;BME280;50118;53.232;8.252;2023-03-01T05:08:17;102934.13;;;-5.91;100.00
58243;BME280;50118;53.232;8.252;2023-03-01T05:10:49;102936.72;;;-5.91;100.00
58243;BME280;50118;53.232;8.252;2023-03-01T05:13:15;102942.78;;;-5.92;100.00
58243;BME280;50118;53.232;8.252;2023-03-01T05:15:47;102935.88;;;-5.90;100.00
58243;BME280;50118;53.232;8.252;2023-03-01T05:18:14;102936.75;;;-5.87;100.00
58243;BME280;50118;53.232;8.252;2023-03-01T05:20:39;102929.84;;;-5.86;100.00
58243;BME280;50118;53.232;8.252;2023-03-01T05:23:05;102940.19;;;-5.88;100.00
58243;BME280;50118;53.232;8.252;2023-03-01T05:25:32;102930.69;;;-5.90;100.00
58243;BME280;50118;53.232;8.252;2023-03-01T05:27:59;102932.41;;;-5.92;100.00
58243;BME280;50118;53.232;8.252;2023-03-01T05:30:30;102938.47;;;-5.89;100.00
58243;BME280;50118;53.232;8.252;2023-03-01T05:32:55;102927.25;;;-5.86;100.00
58243;BME280;50118;53.232;8.252;2023-03-01T05:35:21;102932.41;;;-5.92;100.00
58243;BME280;50118;53.232;8.252;2023-03-01T05:37:48;102927.13;;;-6.02;100.00
58243;BME280;50118;53.232;8.252;2023-03-01T05:40:16;102917.53;;;-6.12;100.00
58243;BME280;50118;53.232;8.252;2023-03-01T05:42:55;102927.06;;;-6.11;100.00
58243;BME280;50118;53.232;8.252;2023-03-01T05:45:23;102920.09;;;-6.15;100.00
58243;BME280;50118;53.232;8.252;2023-03-01T05:47:49;102919.97;;;-6.27;100.00
58243;BME280;50118;53.232;8.252;2023-03-01T05:52:47;102920.00;;;-6.24;100.00
58243;BME280;50118;53.232;8.252;2023-03-01T05:55:13;102921.72;;;-6.26;100.00
58243;BME280;50118;53.232;8.252;2023-03-01T05:57:39;102920.00;;;-6.24;100.00
58243;BME280;50118;53.232;8.252;2023-03-01T06:00:05;102920.03;;;-6.21;100.00
58243;BME280;50118;53.232;8.252;2023-03-01T06:02:31;102926.94;;;-6.20;100.00
58243;BME280;50118;53.232;8.252;2023-03-01T06:04:57;102925.97;;;-6.33;100.00
58243;BME280;50118;53.232;8.252;2023-03-01T06:07:22;102929.41;;;-6.34;100.00
58243;BME280;50118;53.232;8.252;2023-03-01T06:09:47;102933.69;;;-6.38;100.00
58243;BME280;50118;53.232;8.252;2023-03-01T06:12:13;102936.28;;;-6.38;100.00
58243;BME280;50118;53.232;8.252;2023-03-01T06:14:38;102943.22;;;-6.36;100.00
58243;BME280;50118;53.232;8.252;2023-03-01T06:17:04;102940.63;;;-6.33;100.00
58243;BME280;50118;53.232;8.252;2023-03-01T06:19:29;102939.81;;;-6.31;100.00
58243;BME280;50118;53.232;8.252;2023-03-01T06:21:54;102940.69;;;-6.30;100.00
58243;BME280;50118;53.232;8.252;2023-03-01T06:24:20;102940.63;;;-6.33;100.00
58243;BME280;50118;53.232;8.252;2023-03-01T06:26:45;102942.44;;;-6.29;100.00
58243;BME280;50118;53.232;8.252;2023-03-01T06:29:11;102945.94;;;-6.24;100.00
58243;BME280;50118;53.232;8.252;2023-03-01T06:31:36;102954.66;;;-6.19;100.00
58243;BME280;50118;53.232;8.252;2023-03-01T06:34:02;102952.13;;;-6.10;100.00
58243;BME280;50118;53.232;8.252;2023-03-01T06:36:27;102953.94;;;-6.06;100.00
58243;BME280;50118;53.232;8.252;2023-03-01T06:38:52;102953.94;;;-6.04;100.00
58243;BME280;50118;53.232;8.252;2023-03-01T06:41:18;102960.84;;;-6.03;100.00
58243;BME280;50118;53.232;8.252;2023-03-01T06:43:43;102964.38;;;-5.96;100.00
58243;BME280;50118;53.232;8.252;2023-03-01T06:46:09;102963.59;;;-5.86;100.00
58243;BME280;50118;53.232;8.252;2023-03-01T06:48:34;102956.81;;;-5.70;100.00
58243;BME280;50118;53.232;8.252;2023-03-01T06:51:00;102963.06;;;-5.50;100.00
58243;BME280;50118;53.232;8.252;2023-03-01T06:53:28;102965.75;;;-5.36;100.00
58243;BME280;50118;53.232;8.252;2023-03-01T06:55:57;102964.09;;;-5.28;100.00
58243;BME280;50118;53.232;8.252;2023-03-01T06:58:23;102960.69;;;-5.17;100.00
58243;BME280;50118;53.232;8.252;2023-03-01T07:00:48;102963.41;;;-4.94;100.00
58243;BME280;50118;53.232;8.252;2023-03-01T07:03:14;102954.88;;;-4.75;100.00
58243;BME280;50118;53.232;8.252;2023-03-01T07:05:39;102954.97;;;-4.50;100.00
58243;BME280;50118;53.232;8.252;2023-03-01T07:08:05;102959.38;;;-4.29;100.00
58243;BME280;50118;53.232;8.252;2023-03-01T07:10:30;102954.19;;;-4.21;100.00
58243;BME280;50118;53.232;8.252;2023-03-01T07:12:57;102948.97;;;-4.30;100.00
58243;BME280;50118;53.232;8.252;2023-03-01T07:15:22;102957.59;;;-4.41;100.00
58243;BME280;50118;53.232;8.252;2023-03-01T07:17:48;102955.91;;;-4.17;100.00
58243;BME280;50118;53.232;8.252;2023-03-01T07:20:17;102962.91;;;-3.99;100.00
58243;BME280;50118;53.232;8.252;2023-03-01T07:22:42;102961.16;;;-3.97;100.00
58243;BME280;50118;53.232;8.252;2023-03-01T07:25:09;102961.19;;;-3.82;100.00
58243;BME280;50118;53.232;8.252;2023-03-01T07:27:35;102961.22;;;-3.69;100.00
58243;BME280;50118;53.232;8.252;2023-03-01T07:30:01;102966.41;;;-3.66;100.00
58243;BME280;50118;53.232;8.252;2023-03-01T07:32:26;102965.56;;;-3.53;100.00
58243;BME280;50118;53.232;8.252;2023-03-01T07:34:52;102962.97;;;-3.59;100.00
58243;BME280;50118;53.232;8.252;2023-03-01T07:37:17;102959.47;;;-3.57;100.00
58243;BME280;50118;53.232;8.252;2023-03-01T07:39:42;102954.25;;;-3.44;100.00
58243;BME280;50118;53.232;8.252;2023-03-01T07:42:08;102955.97;;;-3.35;100.00
58243;BME280;50118;53.232;8.252;2023-03-01T07:44:33;102949.03;;;-3.24;100.00
58243;BME280;50118;53.232;8.252;2023-03-01T07:47:03;102946.38;;;-3.01;100.00
58243;BME280;50118;53.232;8.252;2023-03-01T07:49:28;102949.81;;;-2.85;100.00
58243;BME280;50118;53.232;8.252;2023-03-01T07:51:54;102941.84;;;-2.51;100.00
58243;BME280;50118;53.232;8.252;2023-03-01T07:54:20;102946.91;;;-2.17;100.00
58243;BME280;50118;53.232;8.252;2023-03-01T07:56:45;102943.34;;;-2.05;100.00
58243;BME280;50118;53.232;8.252;2023-03-01T07:59:11;102945.97;;;-2.05;100.00
58243;BME280;50118;53.232;8.252;2023-03-01T08:01:36;102952.97;;;-2.11;100.00
58243;BME280;50118;53.232;8.252;2023-03-01T08:04:02;102952.84;;;-1.94;100.00
58243;BME280;50118;53.232;8.252;2023-03-01T08:06:27;102953.69;;;-1.89;100.00
58243;BME280;50118;53.232;8.252;2023-03-01T08:08:53;102957.13;;;-1.83;100.00
58243;BME280;50118;53.232;8.252;2023-03-01T08:11:20;102950.13;;;-1.75;100.00
58243;BME280;50118;53.232;8.252;2023-03-01T08:13:47;102944.81;;;-1.69;100.00
58243;BME280;50118;53.232;8.252;2023-03-01T08:16:14;102945.59;;;-1.55;100.00
58243;BME280;50118;53.232;8.252;2023-03-01T08:18:40;102944.66;;;-1.51;100.00
58243;BME280;50118;53.232;8.252;2023-03-01T08:21:09;102929.81;;;-1.44;100.00
58243;BME280;50118;53.232;8.252;2023-03-01T08:23:35;102940.00;;;-1.18;100.00
58243;BME280;50118;53.232;8.252;2023-03-01T08:26:11;102939.78;;;-0.98;100.00
58243;BME280;50118;53.232;8.252;2023-03-01T08:28:38;102942.13;;;-0.71;100.00
58243;BME280;50118;53.232;8.252;2023-03-01T08:31:25;102936.94;;;-0.11;100.00
58243;BME280;50118;53.232;8.252;2023-03-01T08:33:58;102932.66;;;0.41;100.00
58243;BME280;50118;53.232;8.252;2023-03-01T08:36:26;102927.59;;;0.80;100.00
58243;BME280;50118;53.232;8.252;2023-03-01T08:38:52;102922.97;;;0.45;100.00
58243;BME280;50118;53.232;8.252;2023-03-01T08:41:18;102917.03;;;0.83;100.00
58243;BME280;50118;53.232;8.252;2023-03-01T08:43:44;102922.56;;;1.15;100.00
58243;BME280;50118;53.232;8.252;2023-03-01T08:46:10;102919.78;;;1.21;100.00
58243;BME280;50118;53.232;8.252;2023-03-01T08:48:36;102912.50;;;1.35;100.00
58243;BME280;50118;53.232;8.252;2023-03-01T08:51:15;102908.44;;;1.61;100.00
58243;BME280;50118;53.232;8.252;2023-03-01T08:53:41;102904.94;;;1.62;100.00
58243;BME280;50118;53.232;8.252;2023-03-01T08:56:08;102911.34;;;1.48;100.00
58243;BME280;50118;53.232;8.252;2023-03-01T08:58:33;102918.47;;;2.20;100.00
58243;BME280;50118;53.232;8.252;2023-03-01T09:00:59;102910.78;;;2.47;100.00
58243;BME280;50118;53.232;8.252;2023-03-01T09:03:25;102919.41;;;2.17;100.00
58243;BME280;50118;53.232;8.252;2023-03-01T09:05:52;102910.50;;;2.57;100.00
58243;BME280;50118;53.232;8.252;2023-03-01T09:08:18;102901.16;;;3.10;100.00
58243;BME280;50118;53.232;8.252;2023-03-01T09:10:44;102910.78;;;3.12;98.19
58243;BME280;50118;53.232;8.252;2023-03-01T09:13:09;102903.69;;;2.83;100.00
58243;BME280;50118;53.232;8.252;2023-03-01T09:15:37;102902.19;;;2.74;100.00
58243;BME280;50118;53.232;8.252;2023-03-01T09:18:03;102911.03;;;3.03;100.00
58243;BME280;50118;53.232;8.252;2023-03-01T09:20:30;102909.03;;;3.43;100.00
58243;BME280;50118;53.232;8.252;2023-03-01T09:22:56;102911.34;;;3.82;97.07
58243;BME280;50118;53.232;8.252;2023-03-01T09:25:21;102915.06;;;3.74;91.46
58243;BME280;50118;53.232;8.252;2023-03-01T09:27:47;102910.75;;;4.00;94.28
58243;BME280;50118;53.232;8.252;2023-03-01T09:30:13;102912.19;;;4.10;91.12
58243;BME280;50118;53.232;8.252;2023-03-01T09:32:38;102911.16;;;4.41;87.94
58243;BME280;50118;53.232;8.252;2023-03-01T09:35:08;102915.78;;;4.35;80.87
58243;BME280;50118;53.232;8.252;2023-03-01T09:37:35;102916.19;;;3.96;79.56
58243;BME280;50118;53.232;8.252;2023-03-01T09:40:01;102910.00;;;3.68;82.22
58243;BME280;50118;53.232;8.252;2023-03-01T09:42:29;102912.56;;;3.98;80.24
58243;BME280;50118;53.232;8.252;2023-03-01T09:45:11;102914.94;;;4.07;77.54
58243;BME280;50118;53.232;8.252;2023-03-01T09:47:43;102907.91;;;4.33;76.71
58243;BME280;50118;53.232;8.252;2023-03-01T09:50:14;102906.56;;;4.48;75.38
58243;BME280;50118;53.232;8.252;2023-03-01T09:55:13;102909.94;;;4.25;82.28
58243;BME280;50118;53.232;8.252;2023-03-01T09:57:52;102915.72;;;4.09;85.55
58243;BME280;50118;53.232;8.252;2023-03-01T10:00:44;102920.69;;;4.19;81.86
58243;BME280;50118;53.232;8.252;2023-03-01T10:06:19;102918.38;;;4.36;80.58
58243;BME280;50118;53.232;8.252;2023-03-01T10:09:02;102903.44;;;4.62;78.30
58243;BME280;50118;53.232;8.252;2023-03-01T10:11:33;102904.91;;;4.94;76.54
58243;BME280;50118;53.232;8.252;2023-03-01T10:17:04;102914.09;;;4.32;77.07
58243;BME280;50118;53.232;8.252;2023-03-01T10:19:40;102907.06;;;4.83;78.16
58243;BME280;50118;53.232;8.252;2023-03-01T10:22:27;102908.78;;;5.09;76.96
58243;BME280;50118;53.232;8.252;2023-03-01T10:24:58;102903.81;;;5.00;77.72
58243;BME280;50118;53.232;8.252;2023-03-01T10:27:29;102910.59;;;5.07;78.44
58243;BME280;50118;53.232;8.252;2023-03-01T10:32:34;102906.25;;;5.06;77.15
58243;BME280;50118;53.232;8.252;2023-03-01T10:35:00;102905.22;;;4.85;79.13
58243;BME280;50118;53.232;8.252;2023-03-01T10:37:25;102904.03;;;4.94;78.29
58243;BME280;50118;53.232;8.252;2023-03-01T10:44:53;102890.97;;;4.40;77.36
58243;BME280;50118;53.232;8.252;2023-03-01T10:47:22;102893.47;;;4.94;78.03
58243;BME280;50118;53.232;8.252;2023-03-01T10:50:19;102893.47;;;4.94;78.76
58243;BME280;50118;53.232;8.252;2023-03-01T10:52:59;102885.00;;;4.85;79.70
58243;BME280;50118;53.232;8.252;2023-03-01T10:55:32;102888.31;;;4.91;79.79
58243;BME280;50118;53.232;8.252;2023-03-01T10:58:28;102891.31;;;5.05;80.63
58243;BME280;50118;53.232;8.252;2023-03-01T11:00:56;102885.31;;;4.76;81.25
58243;BME280;50118;53.232;8.252;2023-03-01T11:16:31;102880.16;;;6.53;75.43
58243;BME280;50118;53.232;8.252;2023-03-01T11:19:14;102873.16;;;5.87;78.26
58243;BME280;50118;53.232;8.252;2023-03-01T11:21:47;102875.56;;;5.49;80.93
58243;BME280;50118;53.232;8.252;2023-03-01T11:24:16;102874.72;;;5.71;78.03
58243;BME280;50118;53.232;8.252;2023-03-01T11:26:47;102867.59;;;6.38;72.63
58243;BME280;50118;53.232;8.252;2023-03-01T11:29:37;102864.34;;;6.51;71.45
58243;BME280;50118;53.232;8.252;2023-03-01T11:32:07;102871.41;;;6.10;75.96
58243;BME280;50118;53.232;8.252;2023-03-01T11:34:43;102865.47;;;6.25;74.58
58243;BME280;50118;53.232;8.252;2023-03-01T11:37:28;102876.28;;;6.81;71.39
58243;BME280;50118;53.232;8.252;2023-03-01T11:45:23;102860.91;;;7.65;65.47
58243;BME280;50118;53.232;8.252;2023-03-01T11:50:38;102847.91;;;7.41;67.82
58243;BME280;50118;53.232;8.252;2023-03-01T11:58:45;102849.44;;;6.69;72.59
58243;BME280;50118;53.232;8.252;2023-03-01T12:12:29;102844.88;;;6.52;78.32
58243;BME280;50118;53.232;8.252;2023-03-01T12:25:53;102828.50;;;6.63;76.78
58243;BME280;50118;53.232;8.252;2023-03-01T12:31:23;102818.84;;;6.62;72.47
58243;BME280;50118;53.232;8.252;2023-03-01T12:50:42;102811.28;;;6.73;77.80
58243;BME280;50118;53.232;8.252;2023-03-01T12:53:15;102800.69;;;5.91;81.82
58243;BME280;50118;53.232;8.252;2023-03-01T12:55:43;102794.31;;;6.17;81.89
58243;BME280;50118;53.232;8.252;2023-03-01T12:58:44;102801.28;;;6.00;83.78
58243;BME280;50118;53.232;8.252;2023-03-01T13:09:08;102780.91;;;6.22;86.82
58243;BME280;50118;53.232;8.252;2023-03-01T13:11:41;102780.16;;;6.39;82.65
58243;BME280;50118;53.232;8.252;2023-03-01T13:16:49;102770.41;;;5.78;86.61
58243;BME280;50118;53.232;8.252;2023-03-01T13:19:16;102773.19;;;5.95;85.11
58243;BME280;50118;53.232;8.252;2023-03-01T13:21:44;102772.13;;;6.01;87.09
58243;BME280;50118;53.232;8.252;2023-03-01T13:24:40;102769.28;;;5.84;86.84
58243;BME280;50118;53.232;8.252;2023-03-01T13:29:48;102753.53;;;6.23;87.88
58243;BME280;50118;53.232;8.252;2023-03-01T13:37:45;102745.59;;;6.23;87.60
58243;BME280;50118;53.232;8.252;2023-03-01T13:42:53;102742.13;;;6.21;90.93
58243;BME280;50118;53.232;8.252;2023-03-01T13:45:38;102739.63;;;5.97;90.51
58243;BME280;50118;53.232;8.252;2023-03-01T13:48:20;102732.22;;;6.06;92.39
58243;BME280;50118;53.232;8.252;2023-03-01T13:50:58;102732.34;;;6.03;91.98
58243;BME280;50118;53.232;8.252;2023-03-01T13:53:27;102732.63;;;6.36;91.45
58243;BME280;50118;53.232;8.252;2023-03-01T13:56:02;102734.47;;;6.15;89.36
58243;BME280;50118;53.232;8.252;2023-03-01T13:58:41;102734.56;;;5.91;92.53
58243;BME280;50118;53.232;8.252;2023-03-01T14:01:30;102719.38;;;5.76;95.24
58243;BME280;50118;53.232;8.252;2023-03-01T14:03:56;102717.38;;;5.81;94.57
58243;BME280;50118;53.232;8.252;2023-03-01T14:06:25;102717.59;;;5.97;97.47
58243;BME280;50118;53.232;8.252;2023-03-01T14:11:34;102705.66;;;5.87;95.24
58243;BME280;50118;53.232;8.252;2023-03-01T14:14:34;102700.19;;;5.71;95.36
58243;BME280;50118;53.232;8.252;2023-03-01T14:20:18;102699.69;;;5.40;96.17
58243;BME280;50118;53.232;8.252;2023-03-01T14:22:45;102697.78;;;5.44;96.10
58243;BME280;50118;53.232;8.252;2023-03-01T14:25:24;102692.91;;;5.76;95.47
58243;BME280;50118;53.232;8.252;2023-03-01T14:30:44;102686.97;;;5.91;94.42
58243;BME280;50118;53.232;8.252;2023-03-01T14:33:25;102679.56;;;5.79;94.36
58243;BME280;50118;53.232;8.252;2023-03-01T14:40:59;102678.63;;;5.80;94.18
58243;BME280;50118;53.232;8.252;2023-03-01T14:43:27;102673.88;;;6.09;92.50
58243;BME280;50118;53.232;8.252;2023-03-01T14:45:54;102664.06;;;5.90;91.53
58243;BME280;50118;53.232;8.252;2023-03-01T14:48:20;102663.94;;;5.93;92.93
58243;BME280;50118;53.232;8.252;2023-03-01T14:50:45;102659.78;;;5.88;95.22
58243;BME280;50118;53.232;8.252;2023-03-01T14:53:17;102672.22;;;5.86;96.21
58243;BME280;50118;53.232;8.252;2023-03-01T14:55:50;102654.69;;;5.63;96.01
58243;BME280;50118;53.232;8.252;2023-03-01T14:58:18;102663.56;;;5.61;97.30
58243;BME280;50118;53.232;8.252;2023-03-01T15:00:56;102653.69;;;5.65;97.13
58243;BME280;50118;53.232;8.252;2023-03-01T15:03:41;102646.25;;;5.54;96.71
58243;BME280;50118;53.232;8.252;2023-03-01T15:06:09;102647.84;;;5.58;97.03
58243;BME280;50118;53.232;8.252;2023-03-01T15:08:41;102654.56;;;5.66;96.79
58243;BME280;50118;53.232;8.252;2023-03-01T15:13:39;102645.03;;;5.61;96.96